Time;durP1;ratioP1;P1;durP2;ratioP2;P2;SDS_P1;SDS_P2;PMS_P1;PMS_P2;Temp;Humidity;BMP_temperature;BMP_pressure;BME280_temperature;BME280_humidity;BME280_pressure;Samples;Min_cycle;Max_cycle;Signal;HPM_P1;HPM_P2
2022/03/11 00:01:08;;;;;;;0.20;0.13;;;5.50;99.90;;;;;;5047315;28;20558;-66
2022/03/11 00:03:33;;;;;;;0.03;0.03;;;5.50;99.90;;;;;;5054926;28;20053;-66
2022/03/11 00:05:59;;;;;;;0.00;0.00;;;5.50;99.90;;;;;;5045280;28;20052;-66
2022/03/11 00:08:25;;;;;;;0.00;0.00;;;5.50;99.90;;;;;;5045778;28;20411;-67
2022/03/11 00:10:50;;;;;;;0.00;0.00;;;5.40;99.90;;;;;;5044871;28;20452;-66
2022/03/11 00:13:16;;;;;;;0.00;0.00;;;5.40;99.90;;;;;;5044056;28;20057;-66
2022/03/11 00:15:42;;;;;;;0.00;0.00;;;5.40;99.90;;;;;;5045396;28;20460;-65
2022/03/11 00:18:08;;;;;;;0.00;0.00;;;5.50;99.90;;;;;;5045572;28;20407;-67
2022/03/11 00:20:34;;;;;;;0.00;0.00;;;5.40;99.90;;;;;;5045292;28;20037;-67
2022/03/11 00:23:00;;;;;;;0.10;0.10;;;5.30;99.90;;;;;;5045296;28;20139;-67
2022/03/11 00:25:26;;;;;;;0.00;0.00;;;5.30;99.90;;;;;;5045457;28;20124;-67
2022/03/11 00:27:52;;;;;;;0.00;0.00;;;5.30;99.90;;;;;;5044044;28;20044;-66
2022/03/11 00:30:18;;;;;;;0.00;0.00;;;6.10;99.90;;;;;;5044990;28;20041;-67
2022/03/11 00:32:45;;;;;;;0.00;0.00;;;5.30;99.90;;;;;;5044137;28;20638;-66
2022/03/11 00:35:11;;;;;;;0.00;0.00;;;5.20;99.90;;;;;;5045568;28;20060;-67
2022/03/11 00:37:41;;;;;;;0.00;0.00;;;5.20;99.90;;;;;;5044619;28;20123;-67
2022/03/11 00:40:07;;;;;;;0.00;0.00;;;5.20;99.90;;;;;;5027230;28;20073;-66
2022/03/11 00:42:34;;;;;;;0.10;0.10;;;5.10;99.90;;;;;;5044348;28;20041;-67
2022/03/11 00:45:00;;;;;;;0.00;0.00;;;5.10;99.90;;;;;;5044258;28;20566;-67
2022/03/11 00:47:26;;;;;;;0.30;0.30;;;5.30;99.90;;;;;;5045011;28;20048;-68
2022/03/11 00:49:52;;;;;;;0.00;0.00;;;5.00;99.90;;;;;;5044387;28;20044;-67
2022/03/11 00:52:18;;;;;;;0.00;0.00;;;5.00;99.90;;;;;;5044943;28;20049;-67
2022/03/11 00:54:43;;;;;;;0.00;0.00;;;5.00;99.90;;;;;;5044066;28;20047;-66
2022/03/11 00:57:09;;;;;;;1.35;0.60;;;6.10;99.90;;;;;;5043310;28;20648;-67
2022/03/11 00:59:35;;;;;;;0.00;0.00;;;5.00;99.90;;;;;;5044250;28;20048;-67
2022/03/11 01:02:00;;;;;;;0.00;0.00;;;4.90;99.90;;;;;;5049231;28;20041;-67
2022/03/11 01:04:26;;;;;;;0.00;0.00;;;4.90;99.90;;;;;;5051301;28;20119;-66
2022/03/11 01:06:52;;;;;;;0.00;0.00;;;4.80;99.90;;;;;;5044178;28;20081;-68
2022/03/11 01:09:17;;;;;;;0.00;0.00;;;4.80;99.90;;;;;;5044705;28;20231;-67
2022/03/11 01:11:43;;;;;;;0.63;0.32;;;4.80;99.90;;;;;;5043675;28;20496;-66
2022/03/11 01:14:09;;;;;;;0.00;0.00;;;5.10;99.90;;;;;;5043691;28;20056;-67
2022/03/11 01:16:34;;;;;;;0.38;0.38;;;4.70;99.90;;;;;;5026896;28;20095;-66
2022/03/11 01:19:00;;;;;;;0.00;0.00;;;4.60;99.90;;;;;;5044416;28;20041;-66
2022/03/11 01:21:26;;;;;;;0.00;0.00;;;4.70;99.90;;;;;;5026034;28;20036;-67
2022/03/11 01:23:53;;;;;;;0.00;0.00;;;4.60;99.90;;;;;;5044078;28;20094;-68
2022/03/11 01:26:18;;;;;;;0.00;0.00;;;4.60;99.90;;;;;;5044427;28;20056;-67
2022/03/11 01:28:44;;;;;;;0.00;0.00;;;4.60;99.90;;;;;;5042674;28;20523;-66
2022/03/11 01:31:12;;;;;;;0.00;0.00;;;4.70;99.90;;;;;;5026444;28;20048;-67
2022/03/11 01:33:39;;;;;;;0.00;0.00;;;4.60;99.90;;;;;;5044229;28;20053;-67
2022/03/11 01:36:05;;;;;;;0.65;0.60;;;4.60;99.90;;;;;;5044178;28;20311;-62
2022/03/11 01:38:31;;;;;;;0.00;0.00;;;4.60;99.90;;;;;;5044187;28;20114;-67
2022/03/11 01:40:57;;;;;;;1.25;1.15;;;4.60;99.90;;;;;;5043463;28;20085;-67
2022/03/11 01:43:22;;;;;;;0.00;0.00;;;4.60;99.90;;;;;;5043344;28;20557;-67
2022/03/11 01:45:48;;;;;;;0.13;0.13;;;4.50;99.90;;;;;;5025041;28;20052;-68
2022/03/11 01:48:14;;;;;;;0.10;0.10;;;4.50;99.90;;;;;;5043897;28;20506;-67
2022/03/11 01:50:41;;;;;;;0.00;0.00;;;4.50;99.90;;;;;;5043498;28;20507;-67
2022/03/11 01:53:12;;;;;;;0.00;0.00;;;4.50;99.90;;;;;;5043442;28;20590;-67
2022/03/11 01:55:38;;;;;;;0.00;0.00;;;4.50;99.90;;;;;;5043612;28;20083;-67
2022/03/11 01:58:05;;;;;;;0.00;0.00;;;4.40;99.90;;;;;;5043227;28;20462;-67
2022/03/11 02:00:34;;;;;;;0.10;0.10;;;4.40;99.90;;;;;;5043763;28;20037;-67
2022/03/11 02:03:00;;;;;;;0.00;0.00;;;4.40;99.90;;;;;;5054961;28;20051;-67
2022/03/11 02:05:28;;;;;;;0.00;0.00;;;4.40;99.90;;;;;;5043516;28;20483;-67
2022/03/11 02:07:57;;;;;;;1.65;1.45;;;4.30;99.90;;;;;;5042650;28;20044;-68
2022/03/11 02:10:23;;;;;;;0.05;0.05;;;4.30;99.90;;;;;;5043139;28;20124;-67
2022/03/11 02:12:49;;;;;;;0.00;0.00;;;4.30;99.90;;;;;;5042043;28;20057;-67
2022/03/11 02:15:15;;;;;;;1.00;0.38;;;4.30;99.90;;;;;;5043313;28;20120;-67
2022/03/11 02:17:40;;;;;;;0.10;0.10;;;4.20;99.90;;;;;;5042507;28;20495;-67
2022/03/11 02:20:06;;;;;;;0.68;0.68;;;4.20;99.90;;;;;;5043702;28;20586;-67
2022/03/11 02:22:38;;;;;;;0.20;0.20;;;4.30;99.90;;;;;;5043579;28;20045;-67
2022/03/11 02:25:07;;;;;;;0.10;0.10;;;4.20;99.90;;;;;;5043026;28;20041;-67
2022/03/11 02:27:39;;;;;;;0.28;0.20;;;4.20;99.90;;;;;;5041649;28;20510;-66
2022/03/11 02:30:12;;;;;;;1.75;0.95;;;4.20;99.90;;;;;;5043200;28;20053;-62
2022/03/11 02:32:37;;;;;;;0.10;0.10;;;4.80;99.90;;;;;;5042375;28;20067;-67
2022/03/11 02:35:03;;;;;;;0.00;0.00;;;4.10;99.90;;;;;;5043063;28;20048;-67
2022/03/11 02:37:29;;;;;;;0.00;0.00;;;4.10;99.90;;;;;;5025268;28;20040;-67
2022/03/11 02:39:56;;;;;;;9.95;1.55;;;4.10;99.90;;;;;;5041954;28;20094;-67
2022/03/11 02:42:21;;;;;;;0.10;0.10;;;4.10;99.90;;;;;;5042172;28;20045;-67
2022/03/11 02:44:47;;;;;;;0.57;0.57;;;4.10;99.90;;;;;;5042468;28;20672;-67
2022/03/11 02:47:14;;;;;;;0.30;0.30;;;4.00;99.90;;;;;;5042909;28;20499;-67
2022/03/11 02:49:40;;;;;;;0.00;0.00;;;5.00;99.90;;;;;;5024218;28;20052;-66
2022/03/11 02:52:06;;;;;;;0.00;0.00;;;4.00;99.90;;;;;;5042745;28;20565;-67
2022/03/11 02:54:32;;;;;;;0.40;0.40;;;4.00;99.90;;;;;;5042942;28;20045;-66
2022/03/11 02:56:57;;;;;;;0.00;0.00;;;3.90;99.90;;;;;;5041714;28;20120;-67
2022/03/11 02:59:23;;;;;;;0.10;0.10;;;3.90;99.90;;;;;;5042360;28;20119;-67
2022/03/11 03:01:49;;;;;;;0.85;0.40;;;3.80;99.90;;;;;;5044767;28;20082;-67
2022/03/11 03:04:15;;;;;;;0.50;0.20;;;3.90;99.90;;;;;;5050954;28;20048;-66
2022/03/11 03:06:40;;;;;;;0.00;0.00;;;3.80;99.90;;;;;;5042292;28;20029;-67
2022/03/11 03:09:06;;;;;;;0.52;0.52;;;3.80;99.90;;;;;;5042674;28;20530;-67
2022/03/11 03:11:32;;;;;;;0.00;0.00;;;5.10;99.90;;;;;;5042271;28;20120;-67
2022/03/11 03:13:57;;;;;;;0.10;0.10;;;3.70;99.90;;;;;;5023936;28;20143;-68
2022/03/11 03:16:23;;;;;;;0.10;0.10;;;3.70;99.90;;;;;;5042488;28;20080;-67
2022/03/11 03:18:49;;;;;;;0.20;0.20;;;3.70;99.90;;;;;;5024459;28;20128;-67
2022/03/11 03:21:14;;;;;;;0.00;0.00;;;3.60;99.90;;;;;;5042518;28;20033;-66
2022/03/11 03:23:40;;;;;;;0.00;0.00;;;5.20;99.90;;;;;;5041952;28;20411;-67
2022/03/11 03:26:06;;;;;;;0.20;0.20;;;3.50;99.90;;;;;;5042513;28;20037;-66
2022/03/11 03:28:32;;;;;;;0.20;0.20;;;3.50;99.90;;;;;;5042177;28;20137;-67
2022/03/11 03:30:57;;;;;;;0.55;0.22;;;3.50;99.90;;;;;;5024259;28;20056;-67
2022/03/11 03:33:23;;;;;;;0.10;0.10;;;3.40;99.90;;;;;;5024303;28;20530;-66
2022/03/11 03:35:48;;;;;;;0.00;0.00;;;3.10;99.90;;;;;;5041435;28;20036;-67
2022/03/11 03:38:14;;;;;;;0.00;0.00;;;3.40;99.90;;;;;;5024497;28;20041;-67
2022/03/11 03:40:40;;;;;;;0.00;0.00;;;3.40;99.90;;;;;;5041545;28;20045;-66
2022/03/11 03:43:06;;;;;;;0.00;0.00;;;3.40;99.90;;;;;;5041636;28;20041;-67
2022/03/11 03:45:32;;;;;;;0.00;0.00;;;3.30;99.90;;;;;;5042302;28;20041;-67
2022/03/11 03:47:59;;;;;;;0.00;0.00;;;3.30;99.90;;;;;;5041661;28;20163;-67
2022/03/11 03:50:25;;;;;;;0.28;0.28;;;3.20;99.90;;;;;;5042411;28;20045;-67
2022/03/11 03:52:50;;;;;;;0.00;0.00;;;3.20;99.90;;;;;;5041588;28;20519;-67
2022/03/11 03:55:16;;;;;;;0.28;0.28;;;3.20;99.90;;;;;;5042387;28;20049;-67
2022/03/11 03:57:42;;;;;;;0.15;0.15;;;3.10;99.90;;;;;;5040625;28;20084;-66
2022/03/11 04:00:08;;;;;;;0.20;0.15;;;3.10;99.90;;;;;;5041854;28;20131;-67
2022/03/11 04:02:36;;;;;;;0.00;0.00;;;3.10;99.90;;;;;;5033109;28;20098;-67
2022/03/11 04:05:03;;;;;;;0.15;0.15;;;3.10;99.90;;;;;;5043587;28;20045;-67
2022/03/11 04:07:29;;;;;;;0.40;0.40;;;3.00;99.90;;;;;;5044347;28;20049;-67
2022/03/11 04:09:54;;;;;;;0.00;0.00;;;3.00;99.90;;;;;;5045388;28;20128;-67
2022/03/11 04:12:20;;;;;;;0.10;0.10;;;3.00;99.90;;;;;;5026852;28;20486;-68
2022/03/11 04:14:46;;;;;;;0.15;0.15;;;3.00;99.90;;;;;;5044693;28;20051;-67
2022/03/11 04:17:11;;;;;;;0.28;0.28;;;3.00;99.90;;;;;;5045690;28;20041;-66
2022/03/11 04:19:37;;;;;;;0.00;0.00;;;2.00;99.90;;;;;;5045544;28;20577;-66
2022/03/11 04:22:03;;;;;;;20.92;0.63;;;2.90;99.90;;;;;;5044954;28;20044;-67
2022/03/11 04:24:28;;;;;;;0.13;0.13;;;2.90;99.90;;;;;;5045424;28;20033;-66
2022/03/11 04:26:54;;;;;;;0.20;0.20;;;2.90;99.90;;;;;;5044489;28;20133;-67
2022/03/11 04:29:20;;;;;;;3.03;2.60;;;2.80;99.90;;;;;;5045312;28;20045;-66
2022/03/11 04:31:45;;;;;;;0.10;0.05;;;2.80;99.90;;;;;;5044317;28;20449;-66
2022/03/11 04:34:11;;;;;;;0.00;0.00;;;3.00;99.90;;;;;;5027754;28;20103;-66
2022/03/11 04:36:38;;;;;;;0.00;0.00;;;2.70;99.90;;;;;;5045292;28;20048;-67
2022/03/11 04:39:05;;;;;;;0.10;0.10;;;2.70;99.90;;;;;;5045252;28;20150;-66
2022/03/11 04:41:33;;;;;;;0.00;0.00;;;2.60;99.90;;;;;;5044644;28;20056;-67
2022/03/11 04:43:59;;;;;;;0.05;0.05;;;2.90;99.90;;;;;;5027493;28;20448;-67
2022/03/11 04:46:25;;;;;;;0.00;0.00;;;2.60;99.90;;;;;;5044961;28;20119;-67
2022/03/11 04:48:50;;;;;;;0.00;0.00;;;2.60;99.90;;;;;;5044318;28;20092;-67
2022/03/11 04:51:17;;;;;;;1.90;1.75;;;2.60;99.90;;;;;;5044876;28;20068;-67
2022/03/11 04:53:42;;;;;;;0.47;0.28;;;2.50;99.90;;;;;;5044262;28;20049;-67
2022/03/11 04:56:08;;;;;;;0.00;0.00;;;2.50;99.90;;;;;;5044478;28;20113;-67
2022/03/11 04:58:34;;;;;;;1.85;1.75;;;4.00;99.90;;;;;;5044318;28;20152;-67
2022/03/11 05:01:00;;;;;;;2.20;0.57;;;2.40;99.90;;;;;;5045140;28;20076;-67
2022/03/11 05:03:25;;;;;;;0.13;0.13;;;2.50;99.90;;;;;;5055226;28;20106;-67
2022/03/11 05:05:52;;;;;;;4.13;0.43;;;2.50;99.90;;;;;;5043914;28;20045;-67
2022/03/11 05:08:17;;;;;;;0.32;0.32;;;2.40;99.90;;;;;;5044537;28;20508;-67
2022/03/11 05:10:43;;;;;;;0.57;0.45;;;2.40;99.90;;;;;;5044159;28;20053;-67
2022/03/11 05:13:08;;;;;;;0.00;0.00;;;2.40;99.90;;;;;;5043286;28;20052;-67
2022/03/11 05:15:37;;;;;;;0.00;0.00;;;3.70;99.90;;;;;;5044985;28;20128;-67
2022/03/11 05:18:04;;;;;;;0.20;0.20;;;2.30;99.90;;;;;;5044398;28;20115;-67
2022/03/11 05:20:30;;;;;;;0.65;0.65;;;2.30;99.90;;;;;;5044697;28;20622;-67
2022/03/11 05:22:56;;;;;;;0.22;0.22;;;2.30;99.90;;;;;;5043590;28;20103;-68
2022/03/11 05:25:22;;;;;;;0.10;0.10;;;2.20;99.90;;;;;;5044179;28;20090;-65
2022/03/11 05:27:48;;;;;;;0.00;0.00;;;2.20;99.90;;;;;;5043638;28;20120;-67
2022/03/11 05:30:13;;;;;;;0.00;0.00;;;2.30;99.90;;;;;;5043650;28;20095;-67
2022/03/11 05:32:44;;;;;;;0.00;0.00;;;2.20;99.90;;;;;;5043838;28;20059;-67
2022/03/11 05:35:10;;;;;;;0.00;0.00;;;2.20;99.90;;;;;;5044219;28;20392;-67
2022/03/11 05:37:36;;;;;;;0.43;0.38;;;2.10;99.90;;;;;;5043500;28;20055;-69
2022/03/11 05:40:02;;;;;;;0.10;0.10;;;2.20;99.90;;;;;;5044073;28;20190;-67
2022/03/11 05:42:28;;;;;;;0.15;0.10;;;2.10;99.90;;;;;;5042863;28;20179;-67
2022/03/11 05:44:54;;;;;;;0.20;0.20;;;2.10;99.90;;;;;;5043713;28;20429;-67
2022/03/11 05:47:19;;;;;;;2.63;2.20;;;2.10;99.90;;;;;;5043695;28;20495;-68
2022/03/11 05:49:45;;;;;;;0.22;0.22;;;2.10;99.90;;;;;;5043191;28;20045;-69
2022/03/11 05:52:11;;;;;;;0.70;0.70;;;2.10;99.90;;;;;;5043614;28;20415;-67
2022/03/11 05:54:36;;;;;;;0.00;0.00;;;2.10;99.90;;;;;;5043374;28;20610;-67
2022/03/11 05:57:03;;;;;;;0.00;0.00;;;2.10;99.90;;;;;;5042394;28;20475;-65
2022/03/11 05:59:29;;;;;;;0.00;0.00;;;2.00;99.90;;;;;;5043307;28;20072;-67
2022/03/11 06:01:55;;;;;;;0.00;0.00;;;2.00;99.90;;;;;;5046826;28;20055;-67
2022/03/11 06:04:21;;;;;;;0.32;0.32;;;2.00;99.90;;;;;;5050666;28;20086;-67
2022/03/11 06:06:47;;;;;;;0.00;0.00;;;2.00;99.90;;;;;;5043243;28;20450;-67
2022/03/11 06:09:13;;;;;;;0.00;0.00;;;2.00;99.90;;;;;;5043079;28;20061;-67
2022/03/11 06:11:39;;;;;;;0.52;0.43;;;2.10;99.90;;;;;;5023801;28;20049;-67
2022/03/11 06:14:08;;;;;;;0.80;0.68;;;2.10;99.90;;;;;;5043250;28;20055;-67
2022/03/11 06:16:34;;;;;;;0.00;0.00;;;2.10;99.90;;;;;;5044039;28;20049;-65
2022/03/11 06:19:00;;;;;;;0.03;0.03;;;2.00;99.90;;;;;;5043502;28;20061;-67
2022/03/11 06:21:26;;;;;;;0.45;0.45;;;2.00;99.90;;;;;;5042745;28;20103;-67
2022/03/11 06:23:51;;;;;;;0.20;0.20;;;2.00;99.90;;;;;;5042633;28;20121;-66
2022/03/11 06:26:18;;;;;;;0.00;0.00;;;2.00;99.90;;;;;;5042421;28;20104;-67
2022/03/11 06:28:44;;;;;;;0.00;0.00;;;2.00;99.90;;;;;;5042034;28;20088;-67
2022/03/11 06:31:11;;;;;;;1.25;0.47;;;2.00;99.90;;;;;;5042782;28;20094;-68
2022/03/11 06:33:37;;;;;;;0.13;0.13;;;2.00;99.90;;;;;;5042751;28;20084;-67
2022/03/11 06:36:04;;;;;;;0.00;0.00;;;2.00;99.90;;;;;;5043202;28;20074;-67
2022/03/11 06:38:29;;;;;;;0.28;0.28;;;2.00;99.90;;;;;;5042484;28;20049;-67
2022/03/11 06:40:56;;;;;;;0.00;0.00;;;2.00;99.90;;;;;;5042556;28;20048;-67
2022/03/11 06:43:22;;;;;;;0.00;0.00;;;2.10;99.90;;;;;;5042524;28;20380;-66
2022/03/11 06:45:48;;;;;;;0.00;0.00;;;2.10;99.90;;;;;;5042168;28;20128;-67
2022/03/11 06:48:14;;;;;;;0.10;0.10;;;2.00;99.90;;;;;;5042732;28;20045;-67
2022/03/11 06:50:41;;;;;;;0.00;0.00;;;2.10;99.90;;;;;;5042360;28;20348;-66
2022/03/11 06:53:06;;;;;;;0.00;0.00;;;2.10;99.90;;;;;;5025194;28;20088;-67
2022/03/11 06:55:32;;;;;;;1.85;0.95;;;2.10;99.90;;;;;;5042823;28;20068;-65
2022/03/11 06:57:59;;;;;;;0.52;0.20;;;2.10;99.90;;;;;;5041599;28;20170;-66
2022/03/11 07:00:25;;;;;;;0.10;0.10;;;2.20;99.90;;;;;;5042464;28;20060;-67
2022/03/11 07:02:51;;;;;;;0.00;0.00;;;2.20;99.90;;;;;;5052708;28;20049;-67
2022/03/11 07:05:16;;;;;;;0.00;0.00;;;2.30;99.90;;;;;;5042426;28;20048;-65
2022/03/11 07:07:42;;;;;;;0.00;0.00;;;2.30;99.90;;;;;;5042295;28;20124;-67
2022/03/11 07:10:10;;;;;;;0.00;0.00;;;2.30;99.90;;;;;;5024294;28;20578;-68
2022/03/11 07:12:36;;;;;;;0.00;0.00;;;2.40;99.90;;;;;;5041608;28;20052;-67
2022/03/11 07:15:02;;;;;;;0.05;0.05;;;2.40;99.90;;;;;;5042843;28;20045;-67
2022/03/11 07:17:28;;;;;;;0.10;0.10;;;2.50;99.90;;;;;;5042512;28;20036;-67
2022/03/11 07:19:54;;;;;;;0.88;0.65;;;2.50;99.90;;;;;;5041599;28;20534;-68
2022/03/11 07:22:20;;;;;;;0.00;0.00;;;2.50;99.90;;;;;;5042139;28;20401;-67
2022/03/11 07:24:45;;;;;;;0.40;0.40;;;2.60;99.90;;;;;;5024399;28;20053;-66
2022/03/11 07:27:14;;;;;;;0.00;0.00;;;2.60;99.90;;;;;;5041465;28;20045;-67
2022/03/11 07:29:40;;;;;;;0.75;0.38;;;2.70;99.90;;;;;;5042207;28;20045;-67
2022/03/11 07:32:08;;;;;;;0.00;0.00;;;2.70;99.90;;;;;;5042176;28;20821;-67
2022/03/11 07:34:34;;;;;;;0.00;0.00;;;2.80;99.90;;;;;;5042802;28;20072;-67
2022/03/11 07:36:59;;;;;;;0.00;0.00;;;2.90;99.90;;;;;;5041962;28;20182;-67
2022/03/11 07:39:25;;;;;;;0.00;0.00;;;2.90;99.90;;;;;;5042141;28;20131;-67
2022/03/11 07:41:51;;;;;;;0.35;0.35;;;3.00;99.90;;;;;;5043901;28;20205;-67
2022/03/11 07:44:17;;;;;;;0.03;0.03;;;3.10;99.90;;;;;;5045662;28;20045;-67
2022/03/11 07:46:43;;;;;;;0.00;0.00;;;3.10;99.90;;;;;;5046253;28;20128;-67
2022/03/11 07:49:09;;;;;;;0.32;0.32;;;3.20;99.90;;;;;;5046416;28;20334;-68
2022/03/11 07:51:35;;;;;;;0.00;0.00;;;3.40;99.90;;;;;;5045871;28;20048;-68
2022/03/11 07:54:01;;;;;;;0.10;0.10;;;3.40;99.90;;;;;;5045458;28;20115;-68
2022/03/11 07:56:28;;;;;;;0.38;0.30;;;3.40;99.90;;;;;;5045370;28;20138;-67
2022/03/11 07:58:55;;;;;;;0.00;0.00;;;3.50;99.90;;;;;;5045482;28;20047;-68
2022/03/11 08:01:22;;;;;;;0.00;0.00;;;3.70;99.90;;;;;;5047943;28;20048;-69
2022/03/11 08:03:47;;;;;;;0.85;0.43;;;3.70;99.90;;;;;;5053842;28;20433;-68
2022/03/11 08:06:13;;;;;;;0.10;0.10;;;4.10;99.90;;;;;;5045809;28;20060;-68
2022/03/11 08:08:39;;;;;;;0.00;0.00;;;3.80;99.90;;;;;;5045430;28;20120;-68
2022/03/11 08:11:06;;;;;;;0.15;0.05;;;3.80;99.90;;;;;;5045026;28;20068;-68
2022/03/11 08:13:33;;;;;;;0.00;0.00;;;4.00;99.90;;;;;;5045650;28;20496;-70
2022/03/11 08:16:00;;;;;;;0.28;0.13;;;4.10;99.90;;;;;;5045328;28;20124;-69
2022/03/11 08:18:26;;;;;;;0.00;0.00;;;4.10;99.90;;;;;;5045455;28;20110;-68
2022/03/11 08:20:51;;;;;;;0.57;0.17;;;4.30;99.90;;;;;;5044896;28;20084;-68
2022/03/11 08:23:17;;;;;;;0.05;0.05;;;4.40;99.90;;;;;;5045384;28;20048;-68
2022/03/11 08:25:43;;;;;;;0.10;0.10;;;4.50;99.90;;;;;;5043973;28;20037;-68
2022/03/11 08:28:13;;;;;;;0.50;0.50;;;4.60;99.90;;;;;;5045716;28;20602;-68
2022/03/11 08:30:40;;;;;;;0.00;0.00;;;4.70;99.90;;;;;;5045126;28;20120;-68
2022/03/11 08:33:06;;;;;;;1.58;1.48;;;4.80;99.90;;;;;;5045174;28;20045;-68
2022/03/11 08:35:32;;;;;;;0.05;0.05;;;4.90;99.90;;;;;;5045662;28;20443;-68
2022/03/11 08:37:58;;;;;;;0.00;0.00;;;4.90;99.90;;;;;;5026984;28;20045;-68
2022/03/11 08:40:26;;;;;;;1.75;1.15;;;5.00;99.90;;;;;;5044977;28;20044;-67
2022/03/11 08:42:53;;;;;;;0.45;0.28;;;5.10;99.90;;;;;;5025617;28;20511;-68
2022/03/11 08:45:22;;;;;;;1.02;0.77;;;5.10;99.90;;;;;;5045108;28;20045;-68
2022/03/11 08:47:49;;;;;;;0.75;0.75;;;5.20;99.90;;;;;;5043443;28;20071;-68
2022/03/11 08:50:16;;;;;;;0.30;0.13;;;5.30;99.90;;;;;;5044343;28;20424;-68
2022/03/11 08:52:42;;;;;;;0.30;0.30;;;5.40;99.90;;;;;;5043733;28;20411;-66
2022/03/11 08:55:08;;;;;;;0.28;0.28;;;5.50;99.90;;;;;;5045046;28;20037;-68
2022/03/11 08:57:35;;;;;;;0.00;0.00;;;5.50;99.90;;;;;;5044132;28;20088;-64
2022/03/11 09:00:05;;;;;;;2.65;2.45;;;5.60;99.90;;;;;;5044712;28;20045;-68
2022/03/11 09:02:31;;;;;;;0.20;0.20;;;5.80;99.90;;;;;;5054011;28;20403;-68
2022/03/11 09:04:57;;;;;;;0.10;0.10;;;5.90;99.90;;;;;;5046487;28;20057;-68
2022/03/11 09:07:29;;;;;;;0.17;0.17;;;6.00;99.90;;;;;;5026406;28;20485;-68
2022/03/11 09:09:55;;;;;;;0.30;0.30;;;6.00;99.90;;;;;;5044057;28;20777;-68
2022/03/11 09:12:21;;;;;;;0.10;0.10;;;5.90;99.90;;;;;;5043818;28;20099;-68
2022/03/11 09:14:46;;;;;;;0.50;0.50;;;6.20;99.90;;;;;;5043621;28;20053;-68
2022/03/11 09:17:12;;;;;;;0.25;0.25;;;7.40;99.90;;;;;;5044337;28;20788;-69
2022/03/11 09:19:38;;;;;;;1.17;0.30;;;6.50;99.90;;;;;;5026312;28;20041;-69
2022/03/11 09:22:04;;;;;;;0.00;0.00;;;6.80;99.90;;;;;;5044480;28;20037;-66
2022/03/11 09:24:30;;;;;;;0.00;0.00;;;7.50;99.90;;;;;;5044609;28;20041;-69
2022/03/11 09:26:56;;;;;;;0.82;0.80;;;8.20;99.90;;;;;;5043012;28;20111;-68
2022/03/11 09:29:23;;;;;;;1.10;0.50;;;8.00;99.90;;;;;;5044027;28;20053;-68
2022/03/11 09:31:49;;;;;;;0.30;0.30;;;8.00;99.90;;;;;;5043630;28;20710;-68
2022/03/11 09:34:15;;;;;;;0.77;0.77;;;8.20;99.90;;;;;;5043981;28;20041;-69
2022/03/11 09:36:42;;;;;;;0.57;0.57;;;8.20;99.90;;;;;;5043612;28;20049;-68
2022/03/11 09:39:07;;;;;;;0.00;0.00;;;7.90;99.90;;;;;;5043402;28;20076;-68
2022/03/11 09:41:33;;;;;;;0.52;0.47;;;8.70;99.90;;;;;;5043551;28;20071;-68
2022/03/11 09:44:02;;;;;;;0.57;0.10;;;8.70;99.90;;;;;;5043498;28;20103;-68
2022/03/11 09:46:29;;;;;;;0.00;0.00;;;9.30;99.90;;;;;;5043479;28;20051;-69
2022/03/11 09:48:55;;;;;;;0.82;0.82;;;8.90;99.90;;;;;;5042666;28;20053;-70
2022/03/11 09:51:21;;;;;;;0.57;0.40;;;8.80;99.90;;;;;;5043601;28;20049;-68
2022/03/11 09:53:46;;;;;;;0.47;0.43;;;8.80;99.90;;;;;;5043523;28;20465;-70
2022/03/11 09:56:13;;;;;;;0.08;0.08;;;8.80;99.90;;;;;;5024900;28;20048;-69
2022/03/11 09:58:39;;;;;;;0.05;0.03;;;8.70;99.90;;;;;;5042983;28;20099;-68
2022/03/11 10:01:06;;;;;;;0.35;0.17;;;8.80;99.90;;;;;;5044543;28;20564;-68
2022/03/11 10:03:32;;;;;;;0.32;0.30;;;9.10;99.90;;;;;;5053461;28;20187;-67
2022/03/11 10:05:57;;;;;;;0.95;0.38;;;9.30;99.90;;;;;;5024747;28;20063;-68
2022/03/11 10:08:37;;;;;;;0.10;0.10;;;9.60;99.90;;;;;;5025680;28;20044;-68
2022/03/11 10:11:23;;;;;;;0.00;0.00;;;8.90;99.90;;;;;;5042434;28;20076;-68
2022/03/11 10:13:50;;;;;;;1.95;1.58;;;8.80;99.90;;;;;;5042645;28;20416;-67
2022/03/11 10:16:21;;;;;;;4.65;1.23;;;8.80;99.90;;;;;;5043621;28;20040;-67
2022/03/11 10:19:01;;;;;;;1.35;0.75;;;9.00;99.90;;;;;;5024987;28;20463;-67
2022/03/11 10:21:32;;;;;;;0.30;0.30;;;9.00;99.90;;;;;;5043797;28;20058;-60
2022/03/11 10:23:59;;;;;;;0.28;0.25;;;8.70;99.90;;;;;;5042007;28;20040;-67
2022/03/11 10:26:48;;;;;;;0.10;0.10;;;8.90;99.90;;;;;;5042246;28;20052;-68
2022/03/11 10:29:15;;;;;;;0.98;0.20;;;8.70;99.90;;;;;;5042383;28;20073;-67
2022/03/11 10:31:43;;;;;;;0.70;0.40;;;8.90;99.90;;;;;;5042702;28;20083;-66
2022/03/11 10:34:21;;;;;;;0.00;0.00;;;8.90;99.90;;;;;;5042777;28;20072;-67
2022/03/11 10:36:49;;;;;;;0.10;0.10;;;9.20;99.90;;;;;;5041920;28;20096;-67
2022/03/11 10:39:28;;;;;;;0.88;0.55;;;9.10;99.90;;;;;;5042490;28;20045;-67
2022/03/11 10:41:59;;;;;;;3.55;2.65;;;8.70;99.90;;;;;;5041265;28;20127;-67
2022/03/11 10:44:27;;;;;;;0.73;0.50;;;9.20;99.90;;;;;;5024678;28;20061;-67
2022/03/11 10:46:55;;;;;;;0.47;0.13;;;9.10;99.90;;;;;;5042335;28;20389;-67
2022/03/11 10:49:31;;;;;;;0.00;0.00;;;9.50;99.90;;;;;;5042170;28;20148;-68
2022/03/11 10:52:00;;;;;;;0.40;0.40;;;9.90;99.90;;;;;;5042183;28;20119;-67
2022/03/11 10:54:27;;;;;;;1.38;0.50;;;10.10;99.90;;;;;;5058371;28;20494;-67
2022/03/11 10:56:54;;;;;;;0.20;0.20;;;9.90;99.70;;;;;;5026680;28;20095;-67
2022/03/11 10:59:19;;;;;;;1.75;0.30;;;10.30;99.20;;;;;;5041247;28;20128;-67
2022/03/11 11:01:45;;;;;;;0.82;0.47;;;9.80;98.80;;;;;;5025313;28;20137;-66
2022/03/11 11:04:14;;;;;;;0.52;0.40;;;9.80;98.20;;;;;;5041384;28;20040;-68
2022/03/11 11:06:40;;;;;;;0.80;0.20;;;9.30;99.40;;;;;;5041002;28;20077;-66
2022/03/11 11:09:08;;;;;;;0.57;0.38;;;9.70;98.90;;;;;;5040548;28;20045;-67
2022/03/11 11:11:34;;;;;;;1.00;0.68;;;9.50;99.00;;;;;;5041397;28;20487;-67
2022/03/11 11:14:05;;;;;;;0.90;0.85;;;9.60;99.70;;;;;;5020166;28;20128;-67
2022/03/11 11:16:40;;;;;;;0.40;0.40;;;10.00;97.80;;;;;;5021524;28;20057;-67
2022/03/11 11:19:14;;;;;;;0.28;0.28;;;9.70;97.10;;;;;;5021980;28;20100;-67
2022/03/11 11:21:45;;;;;;;0.17;0.17;;;9.90;98.00;;;;;;5020924;28;20412;-66
2022/03/11 11:24:16;;;;;;;0.43;0.35;;;10.80;97.40;;;;;;5020891;28;20042;-68
2022/03/11 11:26:48;;;;;;;0.20;0.20;;;10.60;96.50;;;;;;5020621;28;20053;-68
2022/03/11 11:29:20;;;;;;;0.85;0.25;;;10.70;95.70;;;;;;5022066;28;20049;-68
2022/03/11 11:31:47;;;;;;;0.20;0.20;;;11.10;95.80;;;;;;5021769;28;20077;-68
2022/03/11 11:34:31;;;;;;;0.35;0.30;;;10.40;95.10;;;;;;5021490;28;20459;-68
2022/03/11 11:36:58;;;;;;;0.10;0.10;;;10.70;95.30;;;;;;5021507;28;20436;-68
2022/03/11 11:39:35;;;;;;;0.75;0.43;;;10.20;95.40;;;;;;5022033;28;20046;-68
2022/03/11 11:42:08;;;;;;;1.60;0.55;;;10.30;95.10;;;;;;5021692;28;20099;-66
2022/03/11 11:44:38;;;;;;;1.08;0.57;;;10.30;94.70;;;;;;5022067;28;20042;-67
2022/03/11 11:47:11;;;;;;;0.00;0.00;;;10.70;95.10;;;;;;5020398;28;20056;-68
2022/03/11 11:49:46;;;;;;;0.20;0.20;;;10.70;94.00;;;;;;5022182;28;20465;-66
2022/03/11 11:52:29;;;;;;;3.58;1.35;;;10.50;94.40;;;;;;5036748;28;20472;-66
2022/03/11 11:55:17;;;;;;;0.00;0.00;;;10.50;95.60;;;;;;5021355;28;20085;-67
2022/03/11 11:57:46;;;;;;;0.98;0.52;;;10.60;94.10;;;;;;5021064;28;20077;-68
2022/03/11 12:00:26;;;;;;;0.45;0.10;;;11.10;94.60;;;;;;5021539;28;20053;-68
2022/03/11 12:02:52;;;;;;;2.58;0.88;;;10.90;93.80;;;;;;5033116;28;20048;-69
2022/03/11 12:05:43;;;;;;;0.50;0.35;;;11.00;93.80;;;;;;5021788;28;20092;-68
2022/03/11 12:08:10;;;;;;;0.70;0.45;;;11.50;92.10;;;;;;5021831;28;20049;-68
2022/03/11 12:10:51;;;;;;;0.45;0.45;;;11.20;92.50;;;;;;5020953;28;20056;-68
2022/03/11 12:13:35;;;;;;;0.10;0.10;;;11.30;92.60;;;;;;5031816;28;20053;-69
2022/03/11 12:16:03;;;;;;;0.53;0.40;;;11.20;91.90;;;;;;5041281;28;20087;-69
2022/03/11 12:18:45;;;;;;;1.45;1.05;;;11.30;92.60;;;;;;5046859;28;20045;-69
2022/03/11 12:21:40;;;;;;;0.10;0.10;;;11.50;93.30;;;;;;5055748;28;20115;-68
2022/03/11 12:24:31;;;;;;;0.28;0.20;;;11.30;92.30;;;;;;5053148;28;20045;-68
2022/03/11 12:26:57;;;;;;;0.10;0.10;;;11.70;91.20;;;;;;5039994;28;20412;-68
2022/03/11 12:29:37;;;;;;;0.05;0.05;;;11.90;90.40;;;;;;5030440;28;20514;-68
2022/03/11 12:32:07;;;;;;;4.47;1.20;;;11.50;90.50;;;;;;5054718;28;20104;-68
2022/03/11 12:34:33;;;;;;;0.68;0.65;;;11.30;91.60;;;;;;5054898;28;20058;-69
2022/03/11 12:36:59;;;;;;;1.50;0.25;;;11.60;90.50;;;;;;5054737;28;20033;-69
2022/03/11 12:39:28;;;;;;;2.45;1.50;;;11.60;90.10;;;;;;5054616;28;20782;-67
2022/03/11 12:41:54;;;;;;;0.10;0.10;;;11.40;89.30;;;;;;5053656;28;20131;-68
2022/03/11 12:44:20;;;;;;;1.27;0.60;;;11.50;89.20;;;;;;5053697;28;20053;-68
2022/03/11 12:46:45;;;;;;;13.05;2.17;;;11.20;88.60;;;;;;5054602;28;20671;-68
2022/03/11 12:49:13;;;;;;;0.77;0.43;;;11.40;89.30;;;;;;5035684;28;20036;-69
2022/03/11 12:51:38;;;;;;;1.02;1.02;;;11.80;89.10;;;;;;5054178;28;20501;-69
2022/03/11 12:54:15;;;;;;;0.60;0.25;;;11.90;89.00;;;;;;5035698;28;20076;-69
2022/03/11 12:56:41;;;;;;;1.25;1.15;;;11.90;85.40;;;;;;5052495;28;20041;-69